sensor_id;sensor_type;location;lat;lon;timestamp;P1;durP1;ratioP1;P2;durP2;ratioP2
36403;SDS011;22437;55.646;37.518;2022-09-09T00:02:26;5.63;;;2.45;;
36403;SDS011;22437;55.646;37.518;2022-09-09T00:04:58;6.13;;;1.80;;
36403;SDS011;22437;55.646;37.518;2022-09-09T00:07:34;3.22;;;1.40;;
36403;SDS011;22437;55.646;37.518;2022-09-09T00:10:14;3.47;;;1.48;;
36403;SDS011;22437;55.646;37.518;2022-09-09T00:12:51;4.05;;;1.73;;
36403;SDS011;22437;55.646;37.518;2022-09-09T00:15:28;5.88;;;1.45;;
36403;SDS011;22437;55.646;37.518;2022-09-09T00:18:09;2.45;;;1.40;;
36403;SDS011;22437;55.646;37.518;2022-09-09T00:20:47;4.00;;;1.75;;
36403;SDS011;22437;55.646;37.518;2022-09-09T00:23:24;13.90;;;1.95;;
36403;SDS011;22437;55.646;37.518;2022-09-09T00:25:56;2.92;;;1.60;;
36403;SDS011;22437;55.646;37.518;2022-09-09T00:28:33;4.65;;;1.92;;
36403;SDS011;22437;55.646;37.518;2022-09-09T00:31:11;2.63;;;1.60;;
36403;SDS011;22437;55.646;37.518;2022-09-09T00:33:41;4.78;;;1.77;;
36403;SDS011;22437;55.646;37.518;2022-09-09T00:36:12;2.05;;;1.40;;
36403;SDS011;22437;55.646;37.518;2022-09-09T00:38:45;5.93;;;2.30;;
36403;SDS011;22437;55.646;37.518;2022-09-09T00:41:20;3.15;;;1.60;;
36403;SDS011;22437;55.646;37.518;2022-09-09T00:43:57;2.60;;;1.60;;
36403;SDS011;22437;55.646;37.518;2022-09-09T00:49:27;3.22;;;1.50;;
36403;SDS011;22437;55.646;37.518;2022-09-09T00:52:10;2.15;;;1.35;;
36403;SDS011;22437;55.646;37.518;2022-09-09T00:54:48;5.45;;;1.90;;
36403;SDS011;22437;55.646;37.518;2022-09-09T00:57:26;3.28;;;1.40;;
36403;SDS011;22437;55.646;37.518;2022-09-09T01:00:15;2.03;;;1.40;;
36403;SDS011;22437;55.646;37.518;2022-09-09T01:02:52;5.38;;;1.80;;
36403;SDS011;22437;55.646;37.518;2022-09-09T01:05:33;2.65;;;1.50;;
36403;SDS011;22437;55.646;37.518;2022-09-09T01:08:09;6.22;;;1.90;;
36403;SDS011;22437;55.646;37.518;2022-09-09T01:10:55;3.60;;;1.70;;
36403;SDS011;22437;55.646;37.518;2022-09-09T01:13:29;4.78;;;1.65;;
36403;SDS011;22437;55.646;37.518;2022-09-09T01:16:07;2.33;;;1.73;;
36403;SDS011;22437;55.646;37.518;2022-09-09T01:18:40;2.80;;;1.80;;
36403;SDS011;22437;55.646;37.518;2022-09-09T01:21:16;2.60;;;1.63;;
36403;SDS011;22437;55.646;37.518;2022-09-09T01:24:07;4.17;;;1.40;;
36403;SDS011;22437;55.646;37.518;2022-09-09T01:27:05;5.07;;;1.65;;
36403;SDS011;22437;55.646;37.518;2022-09-09T01:29:36;3.08;;;1.92;;
36403;SDS011;22437;55.646;37.518;2022-09-09T01:35:10;1.92;;;1.63;;
36403;SDS011;22437;55.646;37.518;2022-09-09T01:37:41;2.70;;;2.05;;
36403;SDS011;22437;55.646;37.518;2022-09-09T01:40:11;4.47;;;1.50;;
36403;SDS011;22437;55.646;37.518;2022-09-09T01:42:44;5.10;;;2.00;;
36403;SDS011;22437;55.646;37.518;2022-09-09T01:45:13;4.80;;;1.80;;
36403;SDS011;22437;55.646;37.518;2022-09-09T01:47:43;3.30;;;1.88;;
36403;SDS011;22437;55.646;37.518;2022-09-09T01:50:27;3.13;;;1.80;;
36403;SDS011;22437;55.646;37.518;2022-09-09T01:52:57;2.50;;;1.70;;
36403;SDS011;22437;55.646;37.518;2022-09-09T01:55:31;3.13;;;1.80;;
36403;SDS011;22437;55.646;37.518;2022-09-09T01:58:20;4.10;;;1.60;;
36403;SDS011;22437;55.646;37.518;2022-09-09T02:01:02;4.15;;;1.73;;
36403;SDS011;22437;55.646;37.518;2022-09-09T02:03:41;4.38;;;2.08;;
36403;SDS011;22437;55.646;37.518;2022-09-09T02:06:22;5.28;;;1.90;;
36403;SDS011;22437;55.646;37.518;2022-09-09T02:11:29;3.47;;;1.92;;
36403;SDS011;22437;55.646;37.518;2022-09-09T02:14:08;3.55;;;2.25;;
36403;SDS011;22437;55.646;37.518;2022-09-09T02:16:44;6.18;;;1.90;;
36403;SDS011;22437;55.646;37.518;2022-09-09T02:19:21;5.18;;;2.38;;
36403;SDS011;22437;55.646;37.518;2022-09-09T02:22:02;4.70;;;2.00;;
36403;SDS011;22437;55.646;37.518;2022-09-09T02:24:33;3.00;;;2.00;;
36403;SDS011;22437;55.646;37.518;2022-09-09T02:27:22;3.65;;;2.10;;
36403;SDS011;22437;55.646;37.518;2022-09-09T02:29:53;3.92;;;2.10;;
36403;SDS011;22437;55.646;37.518;2022-09-09T02:32:34;6.15;;;2.38;;
36403;SDS011;22437;55.646;37.518;2022-09-09T02:35:09;7.43;;;2.75;;
36403;SDS011;22437;55.646;37.518;2022-09-09T02:37:42;4.05;;;2.30;;
36403;SDS011;22437;55.646;37.518;2022-09-09T02:40:15;6.60;;;2.28;;
36403;SDS011;22437;55.646;37.518;2022-09-09T02:42:48;3.45;;;2.22;;
36403;SDS011;22437;55.646;37.518;2022-09-09T02:45:22;4.43;;;2.47;;
36403;SDS011;22437;55.646;37.518;2022-09-09T02:47:57;5.15;;;2.42;;
36403;SDS011;22437;55.646;37.518;2022-09-09T02:50:33;2.78;;;2.17;;
36403;SDS011;22437;55.646;37.518;2022-09-09T02:53:06;4.45;;;2.25;;
36403;SDS011;22437;55.646;37.518;2022-09-09T02:55:45;5.55;;;2.53;;
36403;SDS011;22437;55.646;37.518;2022-09-09T02:58:18;3.97;;;2.20;;
36403;SDS011;22437;55.646;37.518;2022-09-09T03:00:56;6.10;;;2.75;;
36403;SDS011;22437;55.646;37.518;2022-09-09T03:03:29;2.92;;;1.85;;
36403;SDS011;22437;55.646;37.518;2022-09-09T03:06:01;3.90;;;2.42;;
36403;SDS011;22437;55.646;37.518;2022-09-09T03:08:27;3.75;;;2.30;;
36403;SDS011;22437;55.646;37.518;2022-09-09T03:10:58;3.85;;;2.45;;
36403;SDS011;22437;55.646;37.518;2022-09-09T03:13:32;4.75;;;2.40;;
36403;SDS011;22437;55.646;37.518;2022-09-09T03:16:02;5.18;;;2.28;;
36403;SDS011;22437;55.646;37.518;2022-09-09T03:18:37;3.53;;;2.10;;
36403;SDS011;22437;55.646;37.518;2022-09-09T03:21:06;3.40;;;2.20;;
36403;SDS011;22437;55.646;37.518;2022-09-09T03:23:37;2.70;;;2.17;;
36403;SDS011;22437;55.646;37.518;2022-09-09T03:26:06;5.68;;;2.40;;
36403;SDS011;22437;55.646;37.518;2022-09-09T03:28:42;4.20;;;2.83;;
36403;SDS011;22437;55.646;37.518;2022-09-09T03:31:16;14.65;;;3.05;;
36403;SDS011;22437;55.646;37.518;2022-09-09T03:36:16;3.97;;;2.72;;
36403;SDS011;22437;55.646;37.518;2022-09-09T03:38:46;4.85;;;2.85;;
36403;SDS011;22437;55.646;37.518;2022-09-09T03:41:15;3.92;;;2.67;;
36403;SDS011;22437;55.646;37.518;2022-09-09T03:43:46;5.03;;;2.95;;
36403;SDS011;22437;55.646;37.518;2022-09-09T03:46:15;2.72;;;1.98;;
36403;SDS011;22437;55.646;37.518;2022-09-09T03:48:45;5.10;;;2.65;;
36403;SDS011;22437;55.646;37.518;2022-09-09T03:51:14;3.55;;;2.30;;
36403;SDS011;22437;55.646;37.518;2022-09-09T03:53:44;3.67;;;1.85;;
36403;SDS011;22437;55.646;37.518;2022-09-09T03:56:14;4.82;;;2.67;;
36403;SDS011;22437;55.646;37.518;2022-09-09T03:58:45;3.83;;;1.67;;
36403;SDS011;22437;55.646;37.518;2022-09-09T04:01:14;5.47;;;2.78;;
36403;SDS011;22437;55.646;37.518;2022-09-09T04:03:48;5.15;;;2.65;;
36403;SDS011;22437;55.646;37.518;2022-09-09T04:06:17;5.47;;;2.17;;
36403;SDS011;22437;55.646;37.518;2022-09-09T04:08:48;6.47;;;2.65;;
36403;SDS011;22437;55.646;37.518;2022-09-09T04:11:20;5.93;;;2.58;;
36403;SDS011;22437;55.646;37.518;2022-09-09T04:13:51;5.82;;;2.50;;
36403;SDS011;22437;55.646;37.518;2022-09-09T04:16:20;7.30;;;3.10;;
36403;SDS011;22437;55.646;37.518;2022-09-09T04:18:52;2.88;;;2.08;;
36403;SDS011;22437;55.646;37.518;2022-09-09T04:21:24;4.40;;;2.38;;
36403;SDS011;22437;55.646;37.518;2022-09-09T04:23:55;6.13;;;3.13;;
36403;SDS011;22437;55.646;37.518;2022-09-09T04:26:26;3.50;;;2.13;;
36403;SDS011;22437;55.646;37.518;2022-09-09T04:28:59;6.00;;;2.80;;
36403;SDS011;22437;55.646;37.518;2022-09-09T04:31:29;3.97;;;2.22;;
36403;SDS011;22437;55.646;37.518;2022-09-09T04:34:03;5.78;;;2.38;;
36403;SDS011;22437;55.646;37.518;2022-09-09T04:36:33;6.03;;;2.50;;
36403;SDS011;22437;55.646;37.518;2022-09-09T04:39:05;5.72;;;2.50;;
36403;SDS011;22437;55.646;37.518;2022-09-09T04:41:38;6.28;;;3.10;;
36403;SDS011;22437;55.646;37.518;2022-09-09T04:44:09;6.30;;;2.60;;
36403;SDS011;22437;55.646;37.518;2022-09-09T04:46:39;4.22;;;2.13;;
36403;SDS011;22437;55.646;37.518;2022-09-09T04:49:11;6.03;;;2.72;;
36403;SDS011;22437;55.646;37.518;2022-09-09T04:51:42;3.25;;;2.50;;
36403;SDS011;22437;55.646;37.518;2022-09-09T04:54:16;4.10;;;2.50;;
36403;SDS011;22437;55.646;37.518;2022-09-09T04:56:46;5.93;;;2.70;;
36403;SDS011;22437;55.646;37.518;2022-09-09T04:59:15;8.63;;;2.65;;
36403;SDS011;22437;55.646;37.518;2022-09-09T05:01:49;5.68;;;2.72;;
36403;SDS011;22437;55.646;37.518;2022-09-09T05:04:23;11.23;;;3.70;;
36403;SDS011;22437;55.646;37.518;2022-09-09T05:06:53;5.28;;;2.65;;
36403;SDS011;22437;55.646;37.518;2022-09-09T05:09:23;3.83;;;2.67;;
36403;SDS011;22437;55.646;37.518;2022-09-09T05:11:53;4.13;;;1.92;;
36403;SDS011;22437;55.646;37.518;2022-09-09T05:14:28;5.55;;;2.67;;
36403;SDS011;22437;55.646;37.518;2022-09-09T05:17:00;6.63;;;2.47;;
36403;SDS011;22437;55.646;37.518;2022-09-09T05:19:31;5.28;;;2.17;;
36403;SDS011;22437;55.646;37.518;2022-09-09T05:22:01;4.80;;;2.35;;
36403;SDS011;22437;55.646;37.518;2022-09-09T05:24:39;5.63;;;1.63;;
36403;SDS011;22437;55.646;37.518;2022-09-09T05:27:08;3.28;;;2.33;;
36403;SDS011;22437;55.646;37.518;2022-09-09T05:32:13;4.03;;;2.45;;
36403;SDS011;22437;55.646;37.518;2022-09-09T05:34:49;7.15;;;3.50;;
36403;SDS011;22437;55.646;37.518;2022-09-09T05:37:19;8.60;;;2.17;;
36403;SDS011;22437;55.646;37.518;2022-09-09T05:39:49;3.83;;;1.92;;
36403;SDS011;22437;55.646;37.518;2022-09-09T05:42:19;9.30;;;2.20;;
36403;SDS011;22437;55.646;37.518;2022-09-09T05:44:48;2.35;;;1.70;;
36403;SDS011;22437;55.646;37.518;2022-09-09T05:47:21;5.43;;;1.95;;
36403;SDS011;22437;55.646;37.518;2022-09-09T05:49:52;4.47;;;1.90;;
36403;SDS011;22437;55.646;37.518;2022-09-09T05:52:22;3.85;;;2.33;;
36403;SDS011;22437;55.646;37.518;2022-09-09T05:54:53;3.53;;;1.90;;
36403;SDS011;22437;55.646;37.518;2022-09-09T05:57:24;4.00;;;1.90;;
36403;SDS011;22437;55.646;37.518;2022-09-09T05:59:55;2.28;;;1.90;;
36403;SDS011;22437;55.646;37.518;2022-09-09T06:02:25;2.67;;;1.70;;
36403;SDS011;22437;55.646;37.518;2022-09-09T06:04:56;4.32;;;2.47;;
36403;SDS011;22437;55.646;37.518;2022-09-09T06:07:40;5.57;;;2.22;;
36403;SDS011;22437;55.646;37.518;2022-09-09T06:10:19;5.82;;;2.13;;
36403;SDS011;22437;55.646;37.518;2022-09-09T06:12:55;2.67;;;1.20;;
36403;SDS011;22437;55.646;37.518;2022-09-09T06:15:25;3.03;;;1.33;;
36403;SDS011;22437;55.646;37.518;2022-09-09T06:18:00;2.53;;;1.20;;
36403;SDS011;22437;55.646;37.518;2022-09-09T06:20:39;1.92;;;1.10;;
36403;SDS011;22437;55.646;37.518;2022-09-09T06:23:09;1.65;;;1.10;;
36403;SDS011;22437;55.646;37.518;2022-09-09T06:25:42;1.73;;;1.15;;
36403;SDS011;22437;55.646;37.518;2022-09-09T06:28:13;4.03;;;1.02;;
36403;SDS011;22437;55.646;37.518;2022-09-09T06:30:46;1.27;;;1.10;;
36403;SDS011;22437;55.646;37.518;2022-09-09T06:33:31;2.80;;;1.20;;
36403;SDS011;22437;55.646;37.518;2022-09-09T06:36:15;3.58;;;1.10;;
36403;SDS011;22437;55.646;37.518;2022-09-09T06:38:45;1.98;;;1.25;;
36403;SDS011;22437;55.646;37.518;2022-09-09T06:41:20;1.83;;;1.05;;
36403;SDS011;22437;55.646;37.518;2022-09-09T06:43:54;2.10;;;1.05;;
36403;SDS011;22437;55.646;37.518;2022-09-09T06:46:33;1.30;;;1.10;;
36403;SDS011;22437;55.646;37.518;2022-09-09T06:49:08;3.70;;;1.20;;
36403;SDS011;22437;55.646;37.518;2022-09-09T06:51:45;1.75;;;1.20;;
36403;SDS011;22437;55.646;37.518;2022-09-09T06:54:21;3.95;;;2.10;;
36403;SDS011;22437;55.646;37.518;2022-09-09T06:56:56;2.90;;;1.25;;
36403;SDS011;22437;55.646;37.518;2022-09-09T06:59:59;3.33;;;1.38;;
36403;SDS011;22437;55.646;37.518;2022-09-09T07:02:31;3.25;;;1.20;;
36403;SDS011;22437;55.646;37.518;2022-09-09T07:05:12;2.90;;;1.45;;
36403;SDS011;22437;55.646;37.518;2022-09-09T07:07:54;2.17;;;0.93;;
36403;SDS011;22437;55.646;37.518;2022-09-09T07:10:32;5.25;;;1.42;;
36403;SDS011;22437;55.646;37.518;2022-09-09T07:13:07;2.50;;;1.10;;
36403;SDS011;22437;55.646;37.518;2022-09-09T07:15:50;2.97;;;1.10;;
36403;SDS011;22437;55.646;37.518;2022-09-09T07:18:23;3.38;;;1.25;;
36403;SDS011;22437;55.646;37.518;2022-09-09T07:20:55;1.70;;;1.13;;
36403;SDS011;22437;55.646;37.518;2022-09-09T07:26:19;1.90;;;1.00;;
36403;SDS011;22437;55.646;37.518;2022-09-09T07:28:52;2.72;;;1.10;;
36403;SDS011;22437;55.646;37.518;2022-09-09T07:31:25;2.38;;;1.20;;
36403;SDS011;22437;55.646;37.518;2022-09-09T07:33:59;1.50;;;1.10;;
36403;SDS011;22437;55.646;37.518;2022-09-09T07:36:33;1.83;;;1.13;;
36403;SDS011;22437;55.646;37.518;2022-09-09T07:39:17;3.20;;;1.20;;
36403;SDS011;22437;55.646;37.518;2022-09-09T07:41:54;2.38;;;1.30;;
36403;SDS011;22437;55.646;37.518;2022-09-09T07:44:32;4.63;;;1.10;;
36403;SDS011;22437;55.646;37.518;2022-09-09T07:47:08;2.33;;;1.08;;
36403;SDS011;22437;55.646;37.518;2022-09-09T07:49:45;1.77;;;1.15;;
36403;SDS011;22437;55.646;37.518;2022-09-09T07:52:24;2.88;;;1.15;;
36403;SDS011;22437;55.646;37.518;2022-09-09T07:55:09;1.30;;;1.00;;
36403;SDS011;22437;55.646;37.518;2022-09-09T07:57:45;3.10;;;0.80;;
36403;SDS011;22437;55.646;37.518;2022-09-09T08:00:16;2.70;;;1.00;;
36403;SDS011;22437;55.646;37.518;2022-09-09T08:02:55;3.53;;;1.00;;
36403;SDS011;22437;55.646;37.518;2022-09-09T08:05:29;3.88;;;1.73;;
36403;SDS011;22437;55.646;37.518;2022-09-09T08:08:04;2.42;;;1.40;;
36403;SDS011;22437;55.646;37.518;2022-09-09T08:10:43;2.25;;;1.10;;
36403;SDS011;22437;55.646;37.518;2022-09-09T08:13:16;2.75;;;1.30;;
36403;SDS011;22437;55.646;37.518;2022-09-09T08:15:53;2.72;;;0.93;;
36403;SDS011;22437;55.646;37.518;2022-09-09T08:18:26;6.78;;;1.20;;
36403;SDS011;22437;55.646;37.518;2022-09-09T08:20:57;1.58;;;1.00;;
36403;SDS011;22437;55.646;37.518;2022-09-09T08:23:38;3.63;;;1.33;;
36403;SDS011;22437;55.646;37.518;2022-09-09T08:26:13;1.90;;;0.90;;
36403;SDS011;22437;55.646;37.518;2022-09-09T08:28:43;1.40;;;0.88;;
36403;SDS011;22437;55.646;37.518;2022-09-09T08:31:14;1.38;;;1.00;;
36403;SDS011;22437;55.646;37.518;2022-09-09T08:33:57;3.63;;;0.80;;
36403;SDS011;22437;55.646;37.518;2022-09-09T08:36:36;5.45;;;1.23;;
36403;SDS011;22437;55.646;37.518;2022-09-09T08:39:13;3.70;;;1.42;;
36403;SDS011;22437;55.646;37.518;2022-09-09T08:42:00;3.47;;;1.20;;
36403;SDS011;22437;55.646;37.518;2022-09-09T08:45:31;3.42;;;1.25;;
36403;SDS011;22437;55.646;37.518;2022-09-09T08:48:14;2.00;;;1.10;;
36403;SDS011;22437;55.646;37.518;2022-09-09T08:51:01;3.75;;;1.00;;
36403;SDS011;22437;55.646;37.518;2022-09-09T08:53:38;0.98;;;0.85;;
36403;SDS011;22437;55.646;37.518;2022-09-09T08:56:13;2.55;;;1.77;;
36403;SDS011;22437;55.646;37.518;2022-09-09T08:58:54;1.38;;;0.70;;
36403;SDS011;22437;55.646;37.518;2022-09-09T09:01:48;1.63;;;0.95;;
36403;SDS011;22437;55.646;37.518;2022-09-09T09:04:38;0.95;;;0.82;;
36403;SDS011;22437;55.646;37.518;2022-09-09T09:07:21;2.83;;;1.00;;
36403;SDS011;22437;55.646;37.518;2022-09-09T09:10:05;1.30;;;0.80;;
36403;SDS011;22437;55.646;37.518;2022-09-09T09:13:02;2.78;;;0.90;;
36403;SDS011;22437;55.646;37.518;2022-09-09T09:15:36;2.05;;;0.95;;
36403;SDS011;22437;55.646;37.518;2022-09-09T09:18:08;13.57;;;2.35;;
36403;SDS011;22437;55.646;37.518;2022-09-09T09:20:49;5.13;;;1.13;;
36403;SDS011;22437;55.646;37.518;2022-09-09T09:23:23;1.20;;;0.90;;
36403;SDS011;22437;55.646;37.518;2022-09-09T09:25:58;1.80;;;1.08;;
36403;SDS011;22437;55.646;37.518;2022-09-09T09:28:31;1.80;;;1.00;;
36403;SDS011;22437;55.646;37.518;2022-09-09T09:31:16;5.82;;;1.27;;
36403;SDS011;22437;55.646;37.518;2022-09-09T09:33:53;3.95;;;1.25;;
36403;SDS011;22437;55.646;37.518;2022-09-09T09:39:40;2.85;;;1.33;;
36403;SDS011;22437;55.646;37.518;2022-09-09T09:42:48;3.35;;;1.20;;
36403;SDS011;22437;55.646;37.518;2022-09-09T09:45:29;2.35;;;1.00;;
36403;SDS011;22437;55.646;37.518;2022-09-09T09:51:15;1.92;;;1.10;;
36403;SDS011;22437;55.646;37.518;2022-09-09T09:54:08;2.42;;;1.10;;
36403;SDS011;22437;55.646;37.518;2022-09-09T09:56:50;1.92;;;1.15;;
36403;SDS011;22437;55.646;37.518;2022-09-09T09:59:34;1.90;;;0.80;;
36403;SDS011;22437;55.646;37.518;2022-09-09T10:02:43;2.70;;;1.27;;
36403;SDS011;22437;55.646;37.518;2022-09-09T10:05:25;1.25;;;0.85;;
36403;SDS011;22437;55.646;37.518;2022-09-09T10:08:10;2.08;;;1.35;;
36403;SDS011;22437;55.646;37.518;2022-09-09T10:10:46;3.95;;;0.98;;
36403;SDS011;22437;55.646;37.518;2022-09-09T10:13:38;1.45;;;0.90;;
36403;SDS011;22437;55.646;37.518;2022-09-09T10:16:19;2.92;;;1.05;;
36403;SDS011;22437;55.646;37.518;2022-09-09T10:19:04;2.92;;;1.10;;
36403;SDS011;22437;55.646;37.518;2022-09-09T10:21:50;1.40;;;0.90;;
36403;SDS011;22437;55.646;37.518;2022-09-09T10:27:32;2.65;;;1.00;;
36403;SDS011;22437;55.646;37.518;2022-09-09T10:30:12;1.40;;;0.75;;
36403;SDS011;22437;55.646;37.518;2022-09-09T10:32:48;2.50;;;0.90;;
36403;SDS011;22437;55.646;37.518;2022-09-09T10:35:25;2.17;;;1.00;;
36403;SDS011;22437;55.646;37.518;2022-09-09T10:38:11;2.53;;;1.10;;
36403;SDS011;22437;55.646;37.518;2022-09-09T10:47:26;3.38;;;1.20;;
36403;SDS011;22437;55.646;37.518;2022-09-09T10:50:14;1.63;;;1.10;;
36403;SDS011;22437;55.646;37.518;2022-09-09T10:56:25;2.90;;;1.13;;
36403;SDS011;22437;55.646;37.518;2022-09-09T10:59:09;2.75;;;1.20;;
36403;SDS011;22437;55.646;37.518;2022-09-09T11:01:49;1.95;;;0.98;;
36403;SDS011;22437;55.646;37.518;2022-09-09T11:04:28;2.53;;;1.00;;
36403;SDS011;22437;55.646;37.518;2022-09-09T11:07:05;3.00;;;1.00;;
36403;SDS011;22437;55.646;37.518;2022-09-09T11:09:45;1.23;;;0.73;;
36403;SDS011;22437;55.646;37.518;2022-09-09T11:12:19;1.23;;;1.02;;
36403;SDS011;22437;55.646;37.518;2022-09-09T11:14:53;2.22;;;1.13;;
36403;SDS011;22437;55.646;37.518;2022-09-09T11:17:36;1.85;;;0.90;;
36403;SDS011;22437;55.646;37.518;2022-09-09T11:20:22;1.45;;;1.00;;
36403;SDS011;22437;55.646;37.518;2022-09-09T11:22:59;2.00;;;1.35;;
36403;SDS011;22437;55.646;37.518;2022-09-09T11:25:44;7.28;;;1.08;;
36403;SDS011;22437;55.646;37.518;2022-09-09T11:28:26;4.70;;;1.35;;
36403;SDS011;22437;55.646;37.518;2022-09-09T11:31:36;1.30;;;1.10;;
36403;SDS011;22437;55.646;37.518;2022-09-09T11:34:19;1.73;;;1.20;;
36403;SDS011;22437;55.646;37.518;2022-09-09T11:37:40;2.58;;;0.93;;
36403;SDS011;22437;55.646;37.518;2022-09-09T11:40:26;1.55;;;1.00;;
36403;SDS011;22437;55.646;37.518;2022-09-09T11:43:08;2.55;;;1.15;;
36403;SDS011;22437;55.646;37.518;2022-09-09T11:45:53;3.58;;;1.10;;
36403;SDS011;22437;55.646;37.518;2022-09-09T11:48:44;3.58;;;1.15;;
36403;SDS011;22437;55.646;37.518;2022-09-09T11:51:30;3.95;;;1.52;;
36403;SDS011;22437;55.646;37.518;2022-09-09T11:57:02;4.93;;;1.38;;
36403;SDS011;22437;55.646;37.518;2022-09-09T11:59:52;2.92;;;1.27;;
36403;SDS011;22437;55.646;37.518;2022-09-09T12:02:27;2.58;;;1.00;;
36403;SDS011;22437;55.646;37.518;2022-09-09T12:05:02;2.47;;;1.20;;
36403;SDS011;22437;55.646;37.518;2022-09-09T12:07:45;1.42;;;1.02;;
36403;SDS011;22437;55.646;37.518;2022-09-09T12:10:25;3.40;;;1.30;;
36403;SDS011;22437;55.646;37.518;2022-09-09T12:13:13;1.75;;;1.10;;
36403;SDS011;22437;55.646;37.518;2022-09-09T12:19:16;3.72;;;1.40;;
36403;SDS011;22437;55.646;37.518;2022-09-09T12:21:59;3.35;;;1.75;;
36403;SDS011;22437;55.646;37.518;2022-09-09T12:25:04;3.28;;;1.23;;
36403;SDS011;22437;55.646;37.518;2022-09-09T12:27:53;2.40;;;0.98;;
36403;SDS011;22437;55.646;37.518;2022-09-09T12:30:41;2.88;;;1.27;;
36403;SDS011;22437;55.646;37.518;2022-09-09T12:33:21;2.63;;;1.15;;
36403;SDS011;22437;55.646;37.518;2022-09-09T12:38:34;1.25;;;0.93;;
36403;SDS011;22437;55.646;37.518;2022-09-09T12:44:20;3.08;;;1.30;;
36403;SDS011;22437;55.646;37.518;2022-09-09T12:46:53;0.70;;;0.70;;
36403;SDS011;22437;55.646;37.518;2022-09-09T12:49:39;2.83;;;1.20;;
36403;SDS011;22437;55.646;37.518;2022-09-09T12:52:13;1.42;;;1.02;;
36403;SDS011;22437;55.646;37.518;2022-09-09T12:54:51;1.35;;;1.05;;
36403;SDS011;22437;55.646;37.518;2022-09-09T12:57:24;1.33;;;0.70;;
36403;SDS011;22437;55.646;37.518;2022-09-09T13:00:05;5.03;;;1.10;;
36403;SDS011;22437;55.646;37.518;2022-09-09T13:03:16;1.85;;;1.17;;
36403;SDS011;22437;55.646;37.518;2022-09-09T13:06:10;3.30;;;1.38;;
36403;SDS011;22437;55.646;37.518;2022-09-09T13:09:00;1.05;;;0.95;;
36403;SDS011;22437;55.646;37.518;2022-09-09T13:55:33;2.73;;;0.90;;
36403;SDS011;22437;55.646;37.518;2022-09-09T13:58:15;1.25;;;1.00;;
36403;SDS011;22437;55.646;37.518;2022-09-09T14:01:01;1.55;;;1.00;;
36403;SDS011;22437;55.646;37.518;2022-09-09T14:04:11;2.15;;;1.10;;
36403;SDS011;22437;55.646;37.518;2022-09-09T14:09:52;4.53;;;1.73;;
36403;SDS011;22437;55.646;37.518;2022-09-09T14:13:12;1.92;;;1.02;;
36403;SDS011;22437;55.646;37.518;2022-09-09T14:15:53;4.18;;;1.27;;
36403;SDS011;22437;55.646;37.518;2022-09-09T14:18:29;2.90;;;1.20;;
36403;SDS011;22437;55.646;37.518;2022-09-09T14:21:13;2.47;;;1.20;;
36403;SDS011;22437;55.646;37.518;2022-09-09T14:23:53;1.88;;;0.80;;
36403;SDS011;22437;55.646;37.518;2022-09-09T14:26:29;4.03;;;1.15;;
36403;SDS011;22437;55.646;37.518;2022-09-09T14:31:34;1.33;;;1.02;;
36403;SDS011;22437;55.646;37.518;2022-09-09T14:34:27;2.80;;;1.27;;
36403;SDS011;22437;55.646;37.518;2022-09-09T14:37:00;3.58;;;1.10;;
36403;SDS011;22437;55.646;37.518;2022-09-09T14:39:39;4.88;;;1.20;;
36403;SDS011;22437;55.646;37.518;2022-09-09T14:42:20;2.70;;;1.27;;
36403;SDS011;22437;55.646;37.518;2022-09-09T14:45:19;3.03;;;1.25;;
36403;SDS011;22437;55.646;37.518;2022-09-09T14:48:01;4.45;;;1.60;;
36403;SDS011;22437;55.646;37.518;2022-09-09T14:50:44;5.28;;;1.40;;
36403;SDS011;22437;55.646;37.518;2022-09-09T14:53:28;3.25;;;1.02;;
36403;SDS011;22437;55.646;37.518;2022-09-09T14:56:04;3.10;;;1.60;;
36403;SDS011;22437;55.646;37.518;2022-09-09T14:59:02;4.38;;;1.35;;
36403;SDS011;22437;55.646;37.518;2022-09-09T15:01:42;4.05;;;1.63;;
36403;SDS011;22437;55.646;37.518;2022-09-09T15:04:15;4.55;;;1.42;;
36403;SDS011;22437;55.646;37.518;2022-09-09T15:06:46;3.88;;;2.22;;
36403;SDS011;22437;55.646;37.518;2022-09-09T15:11:57;5.15;;;2.05;;
36403;SDS011;22437;55.646;37.518;2022-09-09T15:14:46;2.72;;;1.70;;
36403;SDS011;22437;55.646;37.518;2022-09-09T15:20:20;4.25;;;1.40;;
36403;SDS011;22437;55.646;37.518;2022-09-09T15:22:56;5.28;;;2.28;;
36403;SDS011;22437;55.646;37.518;2022-09-09T15:25:32;2.88;;;1.38;;
36403;SDS011;22437;55.646;37.518;2022-09-09T15:28:10;4.88;;;2.25;;
36403;SDS011;22437;55.646;37.518;2022-09-09T15:30:55;6.82;;;2.03;;
36403;SDS011;22437;55.646;37.518;2022-09-09T15:40:19;3.88;;;1.40;;
36403;SDS011;22437;55.646;37.518;2022-09-09T15:43:09;4.60;;;1.50;;
36403;SDS011;22437;55.646;37.518;2022-09-09T15:45:43;8.00;;;2.17;;
36403;SDS011;22437;55.646;37.518;2022-09-09T15:51:23;2.53;;;1.50;;
36403;SDS011;22437;55.646;37.518;2022-09-09T15:54:26;4.88;;;1.50;;
36403;SDS011;22437;55.646;37.518;2022-09-09T15:57:09;4.93;;;1.45;;
36403;SDS011;22437;55.646;37.518;2022-09-09T16:00:18;5.28;;;1.30;;
36403;SDS011;22437;55.646;37.518;2022-09-09T16:03:22;6.63;;;2.33;;
36403;SDS011;22437;55.646;37.518;2022-09-09T16:05:55;4.28;;;2.20;;
36403;SDS011;22437;55.646;37.518;2022-09-09T16:08:32;5.75;;;1.80;;
36403;SDS011;22437;55.646;37.518;2022-09-09T16:14:46;5.60;;;1.63;;
36403;SDS011;22437;55.646;37.518;2022-09-09T16:17:27;4.90;;;1.65;;
36403;SDS011;22437;55.646;37.518;2022-09-09T16:20:08;3.30;;;1.40;;
36403;SDS011;22437;55.646;37.518;2022-09-09T16:22:43;8.70;;;1.33;;
36403;SDS011;22437;55.646;37.518;2022-09-09T16:34:57;2.45;;;1.70;;
36403;SDS011;22437;55.646;37.518;2022-09-09T16:37:54;3.92;;;1.77;;
36403;SDS011;22437;55.646;37.518;2022-09-09T16:40:37;7.40;;;2.03;;
36403;SDS011;22437;55.646;37.518;2022-09-09T16:43:13;4.78;;;1.75;;
36403;SDS011;22437;55.646;37.518;2022-09-09T16:46:01;6.15;;;2.10;;
36403;SDS011;22437;55.646;37.518;2022-09-09T16:55:40;9.88;;;2.20;;
36403;SDS011;22437;55.646;37.518;2022-09-09T16:58:20;4.75;;;1.67;;
36403;SDS011;22437;55.646;37.518;2022-09-09T17:04:02;17.30;;;2.92;;
36403;SDS011;22437;55.646;37.518;2022-09-09T17:06:50;6.72;;;2.50;;
36403;SDS011;22437;55.646;37.518;2022-09-09T17:12:59;6.05;;;2.28;;
36403;SDS011;22437;55.646;37.518;2022-09-09T17:15:48;7.25;;;2.38;;
36403;SDS011;22437;55.646;37.518;2022-09-09T17:18:26;6.60;;;1.88;;
36403;SDS011;22437;55.646;37.518;2022-09-09T17:21:17;4.07;;;1.70;;
36403;SDS011;22437;55.646;37.518;2022-09-09T17:23:54;7.60;;;2.88;;
36403;SDS011;22437;55.646;37.518;2022-09-09T17:26:35;3.50;;;2.30;;
36403;SDS011;22437;55.646;37.518;2022-09-09T17:29:10;22.05;;;4.32;;
36403;SDS011;22437;55.646;37.518;2022-09-09T17:32:00;13.32;;;3.63;;
36403;SDS011;22437;55.646;37.518;2022-09-09T17:35:10;6.45;;;2.20;;
36403;SDS011;22437;55.646;37.518;2022-09-09T17:37:45;13.80;;;4.07;;
36403;SDS011;22437;55.646;37.518;2022-09-09T17:40:20;5.28;;;2.78;;
36403;SDS011;22437;55.646;37.518;2022-09-09T17:49:48;9.05;;;3.20;;
36403;SDS011;22437;55.646;37.518;2022-09-09T17:52:20;5.60;;;2.60;;
36403;SDS011;22437;55.646;37.518;2022-09-09T17:55:02;11.13;;;2.30;;
36403;SDS011;22437;55.646;37.518;2022-09-09T18:18:28;4.57;;;2.63;;
36403;SDS011;22437;55.646;37.518;2022-09-09T18:20:58;4.90;;;2.55;;
36403;SDS011;22437;55.646;37.518;2022-09-09T18:24:03;9.98;;;5.05;;
36403;SDS011;22437;55.646;37.518;2022-09-09T18:27:19;6.32;;;2.67;;
36403;SDS011;22437;55.646;37.518;2022-09-09T18:33:09;5.47;;;2.78;;